Impacts TAF Board
For situational awareness. Not to be used for flight planning purposes.
IDs:

KSAN - San Diego Intl Arpt, CA, US

Issued at 0903 UTC 18 Oct 2018
Updated at 1008 UTC 18 Oct 2018
Potential Impact None Slight Moderate High
Time0951Z 18/11Z 18/12Z 18/13Z 18/14Z 18/15Z 18/16Z 18/17Z 18/18Z 18/19Z 18/20Z 18/21Z 18/22Z 18/23Z>>
Type OBS PRVL PRVL PRVL PRVL PRVL PRVL PRVL PRVL PRVL PRVL PRVL PRVL PRVL
VIS 10 >6 >6 >6 >6 >6 >6 >6 >6 >6 >6 >6 >6 >6
CIG -- -- -- -- -- -- -- -- -- -- -- -- -- --
Cover CLR SKC SKC SKC SKC SKC SKC SKC SKC SKC SKC SKC SKC SKC
FltCat VFR VFR VFR VFR VFR VFR VFR VFR VFR VFR VFR VFR VFR VFR
WX -- -- -- -- -- -- -- -- -- -- -- -- -- --
WDir VRB VRB VRB VRB VRB VRB VRB VRB VRB 310 310 310 310 310
WSpd 0 4 4 4 4 4 4 4 4 10 10 10 10 10
WGst -- -- -- -- -- -- -- -- -- -- -- -- -- --
Raw TAF
KSAN 180903Z 1809/1912 VRB04KT P6SM SKC
  FM181900 31010KT P6SM SKC
  FM190100 VRB04KT P6SM SKC


Raw METAR
KSAN 180951Z 00000KT 10SM CLR 18/05 A3004 RMK AO2 SLP170 T01780050
KSAN 180851Z 12004KT 10SM CLR 19/07 A3004 RMK AO2 SLP173 T01890067 58004
KSAN 180751Z 00000KT 10SM CLR 19/08 A3005 RMK AO2 SLP174 T01890078 402610150

METAR Board
Radar Display
Forecast Discussion
For situational awareness. Not to be used for flight planning purposes.